createdAt,value
2018-07-14T00:01:07.452Z,9.55
2018-07-14T00:03:36.349Z,9.08
2018-07-14T00:06:05.989Z,11.03
2018-07-14T00:08:35.553Z,10.08
2018-07-14T00:11:05.741Z,9.15
2018-07-14T00:13:35.292Z,9.75
2018-07-14T00:16:04.743Z,9.60
2018-07-14T00:18:34.244Z,11.00
2018-07-14T00:21:02.797Z,11.08
2018-07-14T00:23:33.551Z,10.28
2018-07-14T00:26:02.996Z,10.53
2018-07-14T00:28:34.441Z,12.13
2018-07-14T00:31:04.513Z,11.78
2018-07-14T00:33:34.678Z,12.68
2018-07-14T00:36:07.915Z,12.65
2018-07-14T00:38:36.862Z,9.15
2018-07-14T00:41:06.338Z,12.00
2018-07-14T00:43:35.742Z,12.53
2018-07-14T00:46:04.326Z,12.90
2018-07-14T00:48:32.906Z,11.08
2018-07-14T00:51:01.425Z,10.63
2018-07-14T00:53:30.318Z,10.08
2018-07-14T00:55:58.923Z,14.58
2018-07-14T00:58:27.505Z,14.43
2018-07-14T01:00:56.653Z,11.55
2018-07-14T01:03:25.610Z,17.50
2018-07-14T01:05:54.194Z,13.70
2018-07-14T01:08:24.018Z,17.30
2018-07-14T01:10:53.346Z,14.80
2018-07-14T01:13:22.458Z,17.80
2018-07-14T01:15:51.014Z,17.42
2018-07-14T01:18:22.818Z,16.15
2018-07-14T01:20:51.933Z,19.02
2018-07-14T01:23:20.889Z,15.95
2018-07-14T01:25:50.498Z,16.90
2018-07-14T01:28:19.422Z,20.35
2018-07-14T01:30:48.866Z,17.55
2018-07-14T01:33:18.865Z,15.60
2018-07-14T01:35:47.482Z,17.75
2018-07-14T01:38:16.116Z,13.80
2018-07-14T01:40:45.849Z,16.02
2018-07-14T01:43:14.843Z,17.12
2018-07-14T01:45:45.258Z,13.35
2018-07-14T01:48:14.153Z,12.63
2018-07-14T01:50:43.010Z,19.98
2018-07-14T01:53:12.212Z,13.03
2018-07-14T01:55:41.260Z,13.80
2018-07-14T01:58:10.709Z,15.13
2018-07-14T02:00:39.898Z,13.83
2018-07-14T02:03:09.066Z,14.58
2018-07-14T02:05:39.801Z,19.90
2018-07-14T02:08:08.352Z,15.72
2018-07-14T02:10:38.445Z,12.88
2018-07-14T02:13:07.277Z,18.87
2018-07-14T02:15:35.861Z,16.85
2018-07-14T02:18:05.109Z,18.20
2018-07-14T02:20:33.652Z,15.30
2018-07-14T02:23:04.862Z,16.95
2018-07-14T02:25:39.270Z,14.78
2018-07-14T02:28:07.850Z,20.70
2018-07-14T02:30:36.431Z,17.80
2018-07-14T02:33:05.723Z,24.10
2018-07-14T02:35:34.330Z,16.40
2018-07-14T02:38:03.929Z,25.23
2018-07-14T02:40:33.013Z,18.75
2018-07-14T02:43:01.991Z,18.15
2018-07-14T02:45:31.489Z,18.73
2018-07-14T02:48:01.071Z,20.65
2018-07-14T02:50:29.961Z,18.92
2018-07-14T02:52:59.460Z,22.55
2018-07-14T02:55:28.076Z,25.50
2018-07-14T02:57:57.917Z,18.95
2018-07-14T03:00:26.527Z,17.23
2018-07-14T03:02:56.064Z,21.45
2018-07-14T03:05:24.680Z,20.57
2018-07-14T03:07:53.238Z,22.40
2018-07-14T03:10:22.954Z,22.32
2018-07-14T03:12:52.369Z,23.83
2018-07-14T03:15:22.113Z,22.62
2018-07-14T03:17:50.993Z,21.10
2018-07-14T03:20:21.443Z,24.43
2018-07-14T03:22:50.576Z,23.50
2018-07-14T03:25:20.807Z,23.70
2018-07-14T03:27:52.036Z,26.15
2018-07-14T03:30:21.752Z,28.62
2018-07-14T03:32:50.506Z,25.50
2018-07-14T03:35:19.721Z,27.20
2018-07-14T03:37:48.641Z,23.90
2018-07-14T03:40:17.563Z,23.65
2018-07-14T03:42:47.721Z,27.37
2018-07-14T03:45:16.561Z,28.73
2018-07-14T03:47:45.466Z,28.02
2018-07-14T03:50:14.356Z,27.87
2018-07-14T03:52:43.276Z,26.57
2018-07-14T03:55:11.858Z,25.45
2018-07-14T03:57:41.957Z,27.85
2018-07-14T04:00:11.181Z,27.95
2018-07-14T04:02:39.831Z,24.40
2018-07-14T04:05:08.674Z,27.90
2018-07-14T04:07:37.482Z,26.42
2018-07-14T04:10:06.563Z,34.95
2018-07-14T04:12:35.074Z,26.68
2018-07-14T04:15:03.921Z,27.60
2018-07-14T04:17:32.479Z,26.90
2018-07-14T04:20:01.445Z,28.42
2018-07-14T04:22:30.013Z,24.23
2018-07-14T04:24:58.547Z,30.30
2018-07-14T04:27:27.295Z,27.50
2018-07-14T04:29:55.871Z,43.42
2018-07-14T04:32:24.410Z,26.27
2018-07-14T04:34:53.272Z,28.45
2018-07-14T04:37:22.024Z,34.33
2018-07-14T04:39:50.605Z,44.05
2018-07-14T04:42:19.823Z,32.80
2018-07-14T04:44:48.506Z,27.07
2018-07-14T04:47:18.060Z,30.23
2018-07-14T04:49:48.220Z,30.17
2018-07-14T04:52:17.636Z,29.20
2018-07-14T04:54:47.909Z,29.05
2018-07-14T04:57:17.109Z,34.05
2018-07-14T04:59:46.559Z,32.08
2018-07-14T05:02:15.890Z,21.52
2018-07-14T05:04:45.221Z,27.45
2018-07-14T05:07:14.778Z,28.75
2018-07-14T05:09:43.631Z,30.43
2018-07-14T05:12:13.099Z,23.90
2018-07-14T05:14:41.651Z,38.53
2018-07-14T05:17:10.182Z,33.60
2018-07-14T05:19:40.137Z,29.60
2018-07-14T05:22:08.658Z,28.52
2018-07-14T05:25:39.691Z,23.20
2018-07-14T05:28:08.224Z,25.37
2018-07-14T05:30:37.045Z,36.58
2018-07-14T05:33:05.935Z,28.32
2018-07-14T05:35:34.815Z,36.10
2018-07-14T05:38:04.834Z,25.92
2018-07-14T05:40:34.133Z,25.60
2018-07-14T05:43:03.025Z,23.92
2018-07-14T05:45:32.232Z,28.87
2018-07-14T05:48:01.700Z,28.73
2018-07-14T05:50:30.901Z,25.88
2018-07-14T05:53:00.087Z,20.85
2018-07-14T05:55:29.225Z,30.62
2018-07-14T05:57:58.514Z,23.83
2018-07-14T06:00:27.759Z,22.77
2018-07-14T06:02:56.959Z,22.42
2018-07-14T06:05:25.925Z,24.67
2018-07-14T06:07:55.493Z,30.68
2018-07-14T06:10:24.859Z,25.68
2018-07-14T06:12:53.430Z,29.70
2018-07-14T06:15:22.321Z,24.92
2018-07-14T06:17:51.174Z,25.48
2018-07-14T06:20:20.152Z,23.73
2018-07-14T06:22:49.952Z,30.88
2018-07-14T06:25:19.391Z,24.52
2018-07-14T06:27:47.994Z,21.93
2018-07-14T06:30:18.054Z,27.87
2018-07-14T06:32:47.527Z,24.65
2018-07-14T06:35:16.422Z,21.42
2018-07-14T06:37:44.982Z,25.00
2018-07-14T06:40:18.896Z,28.20
2018-07-14T06:42:48.771Z,28.00
2018-07-14T06:45:17.334Z,22.48
2018-07-14T06:47:47.266Z,25.00
2018-07-14T06:50:16.840Z,26.20
2018-07-14T06:52:45.857Z,29.32
2018-07-14T06:55:15.774Z,28.57
2018-07-14T06:57:44.655Z,25.15
2018-07-14T07:00:14.525Z,24.05
2018-07-14T07:02:43.451Z,22.13
2018-07-14T07:05:13.706Z,28.12
2018-07-14T07:07:42.918Z,31.97
2018-07-14T07:10:11.812Z,27.45
2018-07-14T07:12:41.439Z,20.95
2018-07-14T07:15:09.972Z,26.93
2018-07-14T07:17:38.911Z,22.07
2018-07-14T07:20:07.946Z,29.02
2018-07-14T07:22:38.005Z,26.05
2018-07-14T07:25:06.571Z,22.35
2018-07-14T07:27:36.399Z,23.10
2018-07-14T07:30:05.827Z,23.98
2018-07-14T07:32:34.709Z,18.85
2018-07-14T07:35:03.569Z,25.60
2018-07-14T07:37:32.731Z,22.58
2018-07-14T07:40:01.572Z,21.87
2018-07-14T07:42:30.758Z,21.52
2018-07-14T07:44:59.594Z,24.15
2018-07-14T07:47:28.178Z,27.52
2018-07-14T07:49:56.725Z,25.23
2018-07-14T07:52:26.787Z,18.77
2018-07-14T07:54:55.670Z,25.00
2018-07-14T08:00:09.624Z,20.92
2018-07-14T08:02:39.058Z,21.80
2018-07-14T08:05:20.757Z,23.47
2018-07-14T08:07:50.096Z,30.90
2018-07-14T08:10:21.267Z,25.02
2018-07-14T08:12:53.532Z,17.00
2018-07-14T08:18:19.337Z,20.92
2018-07-14T08:20:47.889Z,18.62
2018-07-14T08:23:17.086Z,23.15
2018-07-14T08:25:45.665Z,17.35
2018-07-14T08:28:15.102Z,13.62
2018-07-14T08:30:46.489Z,20.57
2018-07-14T08:33:15.832Z,18.92
2018-07-14T08:35:44.360Z,19.12
2018-07-14T08:38:13.359Z,22.58
2018-07-14T08:40:42.562Z,15.38
2018-07-14T08:43:12.365Z,18.15
2018-07-14T08:45:41.134Z,13.48
2018-07-14T08:48:09.640Z,17.45
2018-07-14T08:50:38.482Z,17.65
2018-07-14T08:53:07.015Z,16.70
2018-07-14T08:55:38.863Z,11.78
2018-07-14T08:58:07.784Z,13.50
2018-07-14T09:00:37.057Z,14.73
2018-07-14T09:03:09.221Z,12.45
2018-07-14T09:05:39.274Z,22.03
2018-07-14T09:08:08.529Z,15.73
2018-07-14T09:10:37.246Z,25.57
2018-07-14T09:13:08.058Z,19.90
2018-07-14T09:15:38.005Z,14.43
2018-07-14T09:18:06.562Z,18.80
2018-07-14T09:20:35.103Z,12.53
2018-07-14T09:23:03.447Z,19.80
2018-07-14T09:25:36.027Z,14.60
2018-07-14T09:28:05.225Z,14.33
2018-07-14T09:30:35.155Z,20.50
2018-07-14T09:33:04.122Z,19.47
2018-07-14T09:35:35.745Z,14.30
2018-07-14T09:38:04.370Z,13.57
2018-07-14T09:40:32.862Z,13.10
2018-07-14T09:43:01.341Z,16.37
2018-07-14T09:45:29.917Z,14.33
2018-07-14T09:47:58.181Z,12.40
2018-07-14T09:50:26.396Z,12.83
2018-07-14T09:52:54.956Z,11.37
2018-07-14T09:55:23.517Z,16.70
2018-07-14T09:57:51.765Z,12.23
2018-07-14T10:00:25.330Z,12.57
2018-07-14T10:02:53.598Z,11.07
2018-07-14T10:05:22.185Z,11.40
2018-07-14T10:07:50.440Z,14.73
2018-07-14T10:10:19.029Z,11.03
2018-07-14T10:12:47.578Z,11.13
2018-07-14T10:15:16.374Z,10.70
2018-07-14T10:17:44.657Z,14.23
2018-07-14T10:20:44.654Z,11.63
2018-07-14T10:23:12.905Z,10.60
2018-07-14T10:25:41.696Z,9.30
2018-07-14T10:28:10.765Z,11.40
2018-07-14T10:30:39.014Z,12.90
2018-07-14T10:33:07.609Z,9.53
2018-07-14T10:35:36.781Z,9.87
2018-07-14T10:38:05.502Z,11.77
2018-07-14T10:40:34.721Z,12.43
2018-07-14T10:43:02.970Z,10.10
2018-07-14T10:45:31.574Z,9.20
2018-07-14T10:47:59.797Z,8.00
2018-07-14T10:50:28.887Z,10.27
2018-07-14T10:52:57.135Z,8.20
2018-07-14T10:55:26.381Z,7.27
2018-07-14T10:57:55.769Z,12.73
2018-07-14T11:00:24.015Z,7.30
2018-07-14T11:02:52.258Z,15.13
2018-07-14T11:05:20.764Z,9.50
2018-07-14T11:07:49.013Z,8.03
2018-07-14T11:10:23.202Z,9.83
2018-07-14T11:12:51.794Z,8.63
2018-07-14T11:15:20.371Z,8.70
2018-07-14T11:17:48.604Z,6.13
2018-07-14T11:20:16.857Z,6.87
2018-07-14T11:22:45.459Z,5.80
2018-07-14T11:25:14.683Z,6.97
2018-07-14T11:27:44.765Z,7.87
2018-07-14T11:30:14.579Z,9.03
2018-07-14T11:32:43.141Z,10.23
2018-07-14T11:35:11.376Z,6.73
2018-07-14T11:37:40.950Z,8.97
2018-07-14T11:40:09.354Z,7.30
2018-07-14T11:42:40.899Z,6.67
2018-07-14T11:45:09.134Z,6.93
2018-07-14T11:47:37.827Z,14.67
2018-07-14T11:50:06.460Z,8.40
2018-07-14T11:55:17.951Z,7.70
2018-07-14T11:57:46.220Z,13.00
2018-07-14T12:00:14.781Z,13.23
2018-07-14T12:02:43.005Z,9.00
2018-07-14T12:05:11.371Z,7.80
2018-07-14T12:07:39.942Z,5.63
2018-07-14T12:10:08.276Z,4.87
2018-07-14T12:16:07.582Z,9.03
2018-07-14T12:18:36.494Z,6.70
2018-07-14T12:21:05.009Z,5.60
2018-07-14T12:23:33.572Z,6.23
2018-07-14T12:26:01.828Z,5.00
2018-07-14T12:28:33.646Z,6.40
2018-07-14T12:31:01.952Z,6.67
2018-07-14T12:33:30.570Z,11.17
2018-07-14T12:35:59.870Z,7.03
2018-07-14T12:38:28.110Z,9.20
2018-07-14T12:40:57.028Z,5.63
2018-07-14T12:43:25.636Z,7.83
2018-07-14T12:45:54.029Z,7.23
2018-07-14T12:48:22.612Z,6.50
2018-07-14T12:50:51.598Z,6.50
2018-07-14T12:53:19.833Z,5.53
2018-07-14T12:55:48.443Z,5.13
2018-07-14T12:58:17.024Z,6.13
2018-07-14T13:00:45.525Z,4.23
2018-07-14T13:03:14.113Z,6.50
2018-07-14T13:05:42.378Z,4.90
2018-07-14T13:08:10.653Z,4.23
2018-07-14T13:10:38.928Z,6.23
2018-07-14T13:13:07.204Z,5.00
2018-07-14T13:15:35.490Z,5.40
2018-07-14T13:18:04.061Z,4.27
2018-07-14T13:20:33.625Z,6.80
2018-07-14T13:23:02.489Z,3.07
2018-07-14T13:25:32.009Z,4.30
2018-07-14T13:28:00.920Z,3.80
2018-07-14T13:30:30.090Z,4.43
2018-07-14T13:32:59.620Z,3.37
2018-07-14T13:35:28.311Z,4.40
2018-07-14T13:37:56.956Z,7.50
2018-07-14T13:40:26.432Z,5.20
2018-07-14T13:42:55.052Z,4.20
2018-07-14T13:45:23.484Z,3.53
2018-07-14T13:47:51.733Z,5.10
2018-07-14T13:50:20.669Z,4.43
2018-07-14T13:52:48.924Z,6.40
2018-07-14T13:55:17.538Z,3.40
2018-07-14T13:57:47.842Z,3.97
2018-07-14T14:00:17.272Z,6.70
2018-07-14T14:02:45.958Z,3.00
2018-07-14T14:05:14.553Z,7.80
2018-07-14T14:08:46.209Z,3.07
2018-07-14T14:11:14.463Z,8.97
2018-07-14T14:13:43.233Z,2.50
2018-07-14T14:16:12.143Z,3.30
2018-07-14T14:18:40.401Z,4.27
2018-07-14T14:21:08.916Z,5.97
2018-07-14T14:23:37.512Z,5.30
2018-07-14T14:26:05.855Z,4.80
2018-07-14T14:28:34.430Z,5.17
2018-07-14T14:31:03.481Z,6.10
2018-07-14T14:33:31.900Z,4.17
2018-07-14T14:36:00.479Z,6.40
2018-07-14T14:38:29.091Z,6.03
2018-07-14T14:40:57.971Z,4.67
2018-07-14T14:43:26.862Z,3.70
2018-07-14T14:45:55.430Z,3.70
2018-07-14T14:48:23.989Z,4.20
2018-07-14T14:51:23.227Z,6.00
2018-07-14T14:53:52.298Z,2.80
2018-07-14T14:56:20.572Z,3.70
2018-07-14T14:58:49.746Z,3.50
2018-07-14T15:01:19.938Z,2.47
2018-07-14T15:03:48.506Z,4.23
2018-07-14T15:06:16.728Z,5.73
2018-07-14T15:08:44.967Z,2.73
2018-07-14T15:11:13.583Z,3.43
2018-07-14T15:13:42.186Z,5.00
2018-07-14T15:16:10.564Z,1.83
2018-07-14T15:18:39.915Z,2.90
2018-07-14T15:21:09.949Z,2.03
2018-07-14T15:23:38.852Z,3.17
2018-07-14T15:26:09.273Z,2.77
2018-07-14T15:28:37.518Z,4.27
2018-07-14T15:31:08.449Z,2.63
2018-07-14T15:33:37.034Z,2.37
2018-07-14T15:36:06.093Z,5.37
2018-07-14T15:38:34.341Z,1.80
2018-07-14T15:41:03.910Z,1.97
2018-07-14T15:43:32.710Z,2.97
2018-07-14T15:46:02.931Z,3.30
2018-07-14T15:48:31.190Z,2.10
2018-07-14T15:51:00.681Z,2.30
2018-07-14T15:53:28.899Z,6.43
2018-07-14T15:55:58.320Z,6.03
2018-07-14T15:58:26.886Z,3.10
2018-07-14T16:00:55.476Z,2.40
2018-07-14T16:03:25.264Z,2.50
2018-07-14T16:05:54.500Z,2.33
2018-07-14T16:08:22.754Z,2.40
2018-07-14T16:10:51.506Z,4.40
2018-07-14T16:13:21.304Z,7.80
2018-07-14T16:15:50.075Z,2.50
2018-07-14T16:18:18.646Z,2.90
2018-07-14T16:20:46.897Z,3.10
2018-07-14T16:23:15.661Z,3.43
2018-07-14T16:25:43.881Z,6.07
2018-07-14T16:28:12.495Z,4.50
2018-07-14T16:30:41.150Z,3.87
2018-07-14T16:33:09.716Z,3.20
2018-07-14T16:35:38.337Z,4.37
2018-07-14T16:38:07.082Z,3.50
2018-07-14T16:40:35.357Z,3.50
2018-07-14T16:44:28.110Z,2.57
2018-07-14T16:46:56.353Z,4.97
2018-07-14T16:49:25.277Z,4.40
2018-07-14T16:51:53.550Z,2.50
2018-07-14T16:54:22.132Z,3.80
2018-07-14T16:56:50.662Z,5.33
2018-07-14T16:59:18.900Z,3.83
2018-07-14T17:01:47.486Z,8.87
2018-07-14T17:04:15.709Z,4.43
2018-07-14T17:06:43.976Z,5.67
2018-07-14T17:09:12.550Z,2.50
2018-07-14T17:11:42.695Z,8.37
2018-07-14T17:14:12.492Z,5.50
2018-07-14T17:16:41.278Z,2.63
2018-07-14T17:19:11.033Z,3.10
2018-07-14T17:21:39.935Z,3.00
2018-07-14T17:24:08.535Z,5.90
2018-07-14T17:26:36.884Z,4.63
2018-07-14T17:29:05.137Z,4.70
2018-07-14T17:31:34.695Z,14.17
2018-07-14T17:34:03.633Z,5.87
2018-07-14T17:36:32.422Z,5.43
2018-07-14T17:39:01.646Z,5.20
2018-07-14T17:41:29.946Z,4.97
2018-07-14T17:43:59.176Z,2.77
2018-07-14T17:46:27.967Z,3.03
2018-07-14T17:48:56.214Z,2.90
2018-07-14T17:51:25.052Z,3.93
2018-07-14T17:53:53.790Z,2.60
2018-07-14T17:56:23.086Z,5.10
2018-07-14T17:58:52.612Z,3.10
2018-07-14T18:01:21.658Z,3.73
2018-07-14T18:03:49.918Z,3.90
2018-07-14T18:06:18.828Z,4.87
2018-07-14T18:08:47.398Z,3.50
2018-07-14T18:11:15.982Z,4.83
2018-07-14T18:13:44.210Z,4.00
2018-07-14T18:16:13.337Z,5.70
2018-07-14T18:18:41.585Z,4.57
2018-07-14T18:21:10.521Z,5.70
2018-07-14T18:23:39.135Z,5.90
2018-07-14T18:26:07.408Z,12.37
2018-07-14T18:28:36.170Z,5.17
2018-07-14T18:31:06.178Z,3.83
2018-07-14T18:33:35.024Z,3.53
2018-07-14T18:36:03.603Z,7.23
2018-07-14T18:38:31.849Z,4.30
2018-07-14T18:41:00.440Z,4.37
2018-07-14T18:43:29.938Z,7.13
2018-07-14T18:45:58.189Z,6.13
2018-07-14T18:48:26.462Z,3.27
2018-07-14T18:50:55.046Z,3.90
2018-07-14T18:53:24.458Z,4.43
2018-07-14T18:55:54.133Z,5.37
2018-07-14T18:58:23.282Z,4.40
2018-07-14T19:00:51.872Z,4.60
2018-07-14T19:03:22.549Z,4.70
2018-07-14T19:05:50.817Z,4.50
2018-07-14T19:08:19.041Z,3.67
2018-07-14T19:10:49.329Z,3.63
2018-07-14T19:13:18.194Z,4.70
2018-07-14T19:15:46.437Z,6.80
2018-07-14T19:18:15.116Z,9.93
2018-07-14T19:20:43.731Z,4.73
2018-07-14T19:23:12.329Z,6.80
2018-07-14T19:25:41.641Z,5.70
2018-07-14T19:28:10.356Z,5.23
2018-07-14T19:30:38.657Z,8.40
2018-07-14T19:33:07.255Z,5.20
2018-07-14T19:35:35.519Z,4.60
2018-07-14T19:38:04.099Z,4.90
2018-07-14T19:40:32.383Z,6.63
2018-07-14T19:43:00.985Z,6.50
2018-07-14T19:45:30.529Z,5.20
2018-07-14T19:47:58.972Z,5.20
2018-07-14T19:50:27.895Z,5.30
2018-07-14T19:53:05.206Z,6.30
2018-07-14T19:55:35.667Z,4.50
2018-07-14T19:58:04.575Z,6.47
2018-07-14T20:00:38.699Z,6.70
2018-07-14T20:03:08.602Z,5.30
2018-07-14T20:05:44.064Z,8.03
2018-07-14T20:08:21.172Z,6.03
2018-07-14T20:10:52.393Z,6.00
2018-07-14T20:13:23.103Z,9.30
2018-07-14T20:15:54.953Z,8.87
2018-07-14T20:18:25.372Z,5.17
2018-07-14T20:20:55.658Z,9.90
2018-07-14T20:23:26.162Z,10.07
2018-07-14T20:26:03.155Z,12.10
2018-07-14T20:28:34.765Z,7.42
2018-07-14T20:31:05.550Z,6.85
2018-07-14T20:33:38.560Z,10.33
2018-07-14T20:36:21.567Z,5.80
2018-07-14T20:38:52.528Z,5.53
2018-07-14T20:41:24.470Z,8.33
2018-07-14T20:43:54.005Z,6.08
2018-07-14T20:46:25.065Z,4.90
2018-07-14T20:48:55.431Z,5.12
2018-07-14T20:51:25.311Z,9.73
2018-07-14T20:53:56.010Z,7.10
2018-07-14T20:56:26.399Z,16.70
2018-07-14T20:58:56.350Z,6.97
2018-07-14T21:01:26.082Z,22.62
2018-07-14T21:03:55.717Z,8.28
2018-07-14T21:06:27.691Z,9.15
2018-07-14T21:08:56.693Z,7.08
2018-07-14T21:11:25.261Z,6.22
2018-07-14T21:13:55.205Z,6.42
2018-07-14T21:16:31.046Z,5.90
2018-07-14T21:19:00.060Z,7.45
2018-07-14T21:21:28.666Z,5.83
2018-07-14T21:23:59.910Z,6.65
2018-07-14T21:26:32.420Z,6.15
2018-07-14T21:29:01.984Z,11.05
2018-07-14T21:31:32.080Z,8.00
2018-07-14T21:34:08.021Z,11.73
2018-07-14T21:36:43.779Z,6.00
2018-07-14T21:39:15.292Z,8.48
2018-07-14T21:41:46.167Z,7.62
2018-07-14T21:44:14.835Z,6.78
2018-07-14T21:46:44.401Z,8.58
2018-07-14T21:49:13.272Z,12.98
2018-07-14T21:51:43.405Z,11.03
2018-07-14T21:54:12.941Z,14.43
2018-07-14T21:56:42.994Z,11.55
2018-07-14T21:59:12.527Z,9.55
2018-07-14T22:01:46.534Z,11.22
2018-07-14T22:04:15.362Z,6.35
2018-07-14T22:06:44.969Z,7.12
2018-07-14T22:09:13.676Z,8.25
2018-07-14T22:11:42.633Z,11.40
2018-07-14T22:14:11.920Z,9.23
2018-07-14T22:16:41.035Z,6.17
2018-07-14T22:19:10.095Z,9.13
2018-07-14T22:21:38.961Z,7.05
2018-07-14T22:24:08.669Z,7.95
2018-07-14T22:26:37.789Z,7.33
2018-07-14T22:29:08.171Z,6.75
2018-07-14T22:34:13.701Z,7.50
2018-07-14T22:36:43.785Z,7.37
2018-07-14T22:39:13.576Z,6.58
2018-07-14T22:41:44.636Z,6.75
2018-07-14T22:44:14.252Z,6.28
2018-07-14T22:46:43.761Z,6.97
2018-07-14T22:49:18.550Z,8.50
2018-07-14T22:51:47.066Z,7.62
2018-07-14T22:54:15.973Z,7.03
2018-07-14T22:56:45.907Z,13.43
2018-07-14T22:59:15.596Z,7.10
2018-07-14T23:01:44.914Z,8.53
2018-07-14T23:04:13.913Z,6.22
2018-07-14T23:06:43.348Z,11.40
2018-07-14T23:09:12.285Z,13.28
2018-07-14T23:11:40.978Z,7.40
2018-07-14T23:14:10.170Z,6.58
2018-07-14T23:16:38.774Z,6.58
2018-07-14T23:19:07.374Z,10.00
2018-07-14T23:21:37.097Z,6.78
2018-07-14T23:24:05.707Z,13.78
2018-07-14T23:26:42.114Z,6.58
2018-07-14T23:29:10.657Z,6.65
2018-07-14T23:31:39.814Z,8.85
2018-07-14T23:34:08.384Z,9.35
2018-07-14T23:36:37.315Z,9.70
2018-07-14T23:39:08.609Z,9.85
2018-07-14T23:41:38.333Z,9.38
2018-07-14T23:44:08.032Z,9.25
2018-07-14T23:46:36.958Z,9.20
2018-07-14T23:49:06.634Z,11.60
2018-07-14T23:51:36.079Z,9.30
2018-07-14T23:54:05.862Z,12.30
2018-07-14T23:56:35.300Z,10.45
2018-07-14T23:59:04.159Z,8.53
